createdAt,value
2023-03-19T00:00:45.986Z,7.10
2023-03-19T00:03:50.563Z,7.10
2023-03-19T00:06:54.439Z,7.00
2023-03-19T00:09:57.810Z,7.00
2023-03-19T00:13:01.061Z,7.00
2023-03-19T00:16:04.330Z,6.90
2023-03-19T00:19:08.881Z,6.90
2023-03-19T00:22:11.998Z,6.90
2023-03-19T00:25:15.174Z,6.90
2023-03-19T00:28:18.508Z,6.80
2023-03-19T00:31:21.896Z,6.80
2023-03-19T00:34:27.054Z,6.80
2023-03-19T00:37:30.201Z,6.80
2023-03-19T00:40:33.576Z,6.70
2023-03-19T00:43:36.895Z,6.70
2023-03-19T00:46:40.099Z,6.70
2023-03-19T00:49:44.673Z,6.70
2023-03-19T00:52:47.828Z,6.70
2023-03-19T00:55:50.951Z,6.70
2023-03-19T00:58:54.110Z,6.70
2023-03-19T01:01:57.328Z,6.60
2023-03-19T01:05:01.825Z,6.60
2023-03-19T01:08:05.046Z,6.60
2023-03-19T01:11:09.895Z,6.60
2023-03-19T01:14:13.124Z,6.50
2023-03-19T01:17:16.261Z,6.50
2023-03-19T01:20:24.044Z,6.50
2023-03-19T01:23:27.246Z,6.50
2023-03-19T01:26:30.830Z,6.50
2023-03-19T01:29:33.982Z,6.40
2023-03-19T01:32:37.227Z,6.40
2023-03-19T01:35:42.677Z,6.40
2023-03-19T01:38:45.978Z,6.30
2023-03-19T01:41:49.109Z,6.30
2023-03-19T01:44:52.244Z,6.30
2023-03-19T01:47:55.482Z,6.30
2023-03-19T01:51:02.225Z,6.30
2023-03-19T01:54:08.636Z,6.20
2023-03-19T01:57:14.404Z,6.20
2023-03-19T02:00:18.116Z,6.20
2023-03-19T02:03:22.174Z,6.20
2023-03-19T02:06:28.362Z,6.10
2023-03-19T02:09:33.241Z,6.10
2023-03-19T02:12:36.711Z,6.10
2023-03-19T02:15:40.192Z,6.10
2023-03-19T02:18:43.566Z,6.10
2023-03-19T02:21:48.099Z,6.10
2023-03-19T02:24:54.820Z,6.00
2023-03-19T02:27:59.717Z,6.00
2023-03-19T02:31:02.915Z,6.00
2023-03-19T02:34:07.853Z,6.00
2023-03-19T02:37:17.650Z,6.00
2023-03-19T02:40:25.673Z,6.00
2023-03-19T02:43:30.935Z,6.00
2023-03-19T02:46:34.304Z,6.00
2023-03-19T02:49:37.513Z,6.00
2023-03-19T02:52:40.739Z,6.00
2023-03-19T02:55:43.910Z,6.00
2023-03-19T02:58:48.422Z,6.00
2023-03-19T03:01:51.782Z,5.90
2023-03-19T03:04:54.911Z,5.90
2023-03-19T03:07:58.114Z,5.90
2023-03-19T03:11:01.241Z,5.90
2023-03-19T03:14:06.021Z,5.80
2023-03-19T03:17:09.517Z,5.80
2023-03-19T03:20:14.525Z,5.80
2023-03-19T03:23:17.822Z,5.80
2023-03-19T03:26:21.241Z,5.70
2023-03-19T03:29:25.756Z,5.60
2023-03-19T03:32:28.884Z,5.60
2023-03-19T03:35:32.568Z,5.60
2023-03-19T03:38:35.728Z,5.60
2023-03-19T03:41:38.971Z,5.60
2023-03-19T03:44:43.456Z,5.60
2023-03-19T03:47:47.521Z,5.60
2023-03-19T03:50:51.651Z,5.50
2023-03-19T03:53:54.797Z,5.60
2023-03-19T03:56:57.998Z,5.60
2023-03-19T04:00:02.526Z,5.50
2023-03-19T04:03:07.248Z,5.50
2023-03-19T04:06:14.594Z,5.50
2023-03-19T04:09:18.147Z,5.40
2023-03-19T04:12:21.834Z,5.40
2023-03-19T04:15:26.621Z,5.40
2023-03-19T04:18:29.744Z,5.40
2023-03-19T04:21:32.890Z,5.40
2023-03-19T04:24:36.442Z,5.40
2023-03-19T04:27:39.595Z,5.40
2023-03-19T04:30:44.908Z,5.40
2023-03-19T04:33:48.492Z,5.30
2023-03-19T04:36:51.910Z,5.30
2023-03-19T04:39:55.284Z,5.30
2023-03-19T04:42:58.422Z,5.30
2023-03-19T04:46:02.954Z,5.20
2023-03-19T04:49:06.096Z,5.20
2023-03-19T04:52:09.543Z,5.20
2023-03-19T04:55:13.212Z,5.20
2023-03-19T04:58:16.431Z,5.20
2023-03-19T05:01:21.064Z,5.20
2023-03-19T05:04:25.074Z,5.20
2023-03-19T05:07:28.282Z,5.10
2023-03-19T05:10:32.605Z,5.10
2023-03-19T05:13:35.910Z,5.10
2023-03-19T05:16:40.478Z,5.10
2023-03-19T05:19:43.912Z,5.10
2023-03-19T05:22:47.786Z,5.10
2023-03-19T05:25:50.909Z,5.10
2023-03-19T05:28:54.098Z,5.20
2023-03-19T05:31:58.558Z,5.20
2023-03-19T05:35:01.730Z,5.20
2023-03-19T05:38:04.883Z,5.20
2023-03-19T05:41:08.770Z,5.30
2023-03-19T05:44:12.005Z,5.40
2023-03-19T05:47:16.627Z,5.40
2023-03-19T05:50:20.124Z,5.50
2023-03-19T05:53:24.221Z,5.50
2023-03-19T05:56:27.377Z,5.60
2023-03-19T05:59:30.789Z,5.70
2023-03-19T06:02:35.737Z,5.90
2023-03-19T06:05:39.045Z,6.10
2023-03-19T06:08:42.937Z,6.20
2023-03-19T06:11:46.132Z,6.30
2023-03-19T06:14:49.254Z,6.50
2023-03-19T06:17:53.757Z,6.60
2023-03-19T06:20:56.926Z,6.60
2023-03-19T06:24:00.497Z,6.80
2023-03-19T06:27:03.681Z,7.00
2023-03-19T06:30:09.140Z,7.10
2023-03-19T06:33:14.422Z,7.20
2023-03-19T06:36:17.739Z,7.40
2023-03-19T06:39:21.212Z,7.60
2023-03-19T06:42:24.581Z,7.70
2023-03-19T06:45:28.126Z,7.80
2023-03-19T06:48:32.685Z,8.00
2023-03-19T06:51:35.841Z,8.20
2023-03-19T06:54:38.980Z,8.40
2023-03-19T06:57:42.112Z,8.50
2023-03-19T07:00:45.479Z,8.70
2023-03-19T07:03:50.057Z,9.00
2023-03-19T07:06:53.241Z,9.10
2023-03-19T07:09:56.565Z,9.50
2023-03-19T07:12:59.717Z,11.50
2023-03-19T07:16:02.837Z,14.00
2023-03-19T07:19:07.365Z,16.00
2023-03-19T07:22:10.576Z,18.00
2023-03-19T07:25:13.758Z,19.60
2023-03-19T07:28:18.042Z,21.20
2023-03-19T07:31:21.216Z,22.80
2023-03-19T07:34:26.372Z,23.90
2023-03-19T07:37:29.518Z,24.80
2023-03-19T07:40:33.001Z,25.90
2023-03-19T07:43:36.560Z,26.90
2023-03-19T07:46:39.802Z,27.70
2023-03-19T07:49:44.446Z,28.30
2023-03-19T07:52:48.154Z,28.90
2023-03-19T07:55:51.440Z,29.60
2023-03-19T07:58:54.642Z,29.60
2023-03-19T08:01:57.864Z,29.80
2023-03-19T08:05:04.837Z,30.40
2023-03-19T08:08:08.035Z,31.10
2023-03-19T08:11:11.713Z,31.30
2023-03-19T08:14:19.257Z,31.70
2023-03-19T08:17:22.548Z,31.60
2023-03-19T08:20:27.164Z,31.00
2023-03-19T08:23:30.613Z,30.10
2023-03-19T08:26:34.026Z,29.90
2023-03-19T08:29:37.502Z,30.60
2023-03-19T08:32:40.741Z,31.70
2023-03-19T08:35:45.355Z,32.60
2023-03-19T08:38:48.543Z,33.30
2023-03-19T08:41:51.682Z,34.00
2023-03-19T08:44:54.825Z,34.30
2023-03-19T08:47:59.047Z,34.40
2023-03-19T08:51:07.202Z,34.30
2023-03-19T08:54:11.326Z,34.40
2023-03-19T08:57:14.559Z,33.20
2023-03-19T09:00:19.529Z,34.00
2023-03-19T09:03:22.863Z,34.90
2023-03-19T09:06:27.403Z,34.70
2023-03-19T09:09:30.562Z,35.30
2023-03-19T09:12:34.012Z,36.50
2023-03-19T09:15:37.424Z,36.40
2023-03-19T09:18:40.705Z,36.00
2023-03-19T09:21:45.740Z,36.50
2023-03-19T09:24:48.944Z,37.00
2023-03-19T09:27:52.179Z,37.70
2023-03-19T09:30:56.135Z,38.60
2023-03-19T09:33:59.392Z,37.00
2023-03-19T09:37:03.967Z,36.70
2023-03-19T09:40:08.610Z,37.50
2023-03-19T09:43:31.887Z,39.00
2023-03-19T09:46:44.570Z,40.20
2023-03-19T09:49:49.541Z,40.80
2023-03-19T09:52:59.854Z,41.00
2023-03-19T09:56:06.720Z,42.30
2023-03-19T09:59:10.370Z,43.30
2023-03-19T10:02:41.423Z,42.70
2023-03-19T10:05:52.642Z,41.00
2023-03-19T10:09:13.434Z,39.40
2023-03-19T10:12:27.688Z,37.50
2023-03-19T10:15:32.405Z,37.50
2023-03-19T10:18:39.480Z,37.40
2023-03-19T10:21:47.374Z,37.40
2023-03-19T10:24:54.752Z,37.20
2023-03-19T10:28:06.626Z,36.50
2023-03-19T10:31:23.651Z,36.20
2023-03-19T10:34:35.611Z,36.60
2023-03-19T10:37:39.788Z,36.90
2023-03-19T10:40:52.437Z,36.10
2023-03-19T10:43:59.881Z,35.70
2023-03-19T10:47:13.254Z,35.60
2023-03-19T10:50:18.367Z,35.00
2023-03-19T10:53:31.977Z,34.30
2023-03-19T10:56:36.815Z,33.80
2023-03-19T10:59:40.131Z,33.20
2023-03-19T11:02:48.966Z,30.90
2023-03-19T11:06:06.616Z,30.10
2023-03-19T11:09:19.922Z,29.90
2023-03-19T11:12:28.308Z,28.80
2023-03-19T11:15:37.513Z,28.20
2023-03-19T11:18:41.235Z,27.00
2023-03-19T11:21:54.519Z,26.60
2023-03-19T11:25:01.375Z,26.70
2023-03-19T11:28:11.138Z,26.60
2023-03-19T11:31:21.066Z,25.60
2023-03-19T11:34:34.706Z,25.00
2023-03-19T11:37:51.970Z,25.50
2023-03-19T11:41:03.569Z,25.90
2023-03-19T11:44:16.156Z,27.10
2023-03-19T11:47:28.246Z,28.60
2023-03-19T11:50:41.491Z,29.80
2023-03-19T11:54:01.179Z,31.00
2023-03-19T11:57:09.736Z,32.90
2023-03-19T12:00:25.291Z,32.60
2023-03-19T12:04:10.322Z,34.00
2023-03-19T12:07:24.705Z,34.70
2023-03-19T12:10:36.046Z,33.60
2023-03-19T12:13:58.628Z,34.70
2023-03-19T12:17:17.233Z,35.20
2023-03-19T12:20:47.575Z,36.90
2023-03-19T12:24:03.915Z,38.30
2023-03-19T12:27:18.348Z,38.20
2023-03-19T12:30:30.774Z,38.30
2023-03-19T12:33:44.726Z,37.10
2023-03-19T12:36:53.958Z,35.00
2023-03-19T12:40:08.108Z,35.80
2023-03-19T12:43:18.977Z,35.00
2023-03-19T12:46:28.862Z,34.30
2023-03-19T12:49:39.070Z,32.70
2023-03-19T12:52:44.581Z,32.80
2023-03-19T12:55:51.496Z,34.40
2023-03-19T12:59:01.235Z,33.80
2023-03-19T13:02:13.732Z,32.50
2023-03-19T13:05:28.059Z,31.60
2023-03-19T13:08:34.847Z,30.20
2023-03-19T13:11:47.115Z,29.80
2023-03-19T13:14:58.156Z,28.50
2023-03-19T13:18:16.392Z,27.40
2023-03-19T13:21:26.283Z,26.40
2023-03-19T13:24:32.118Z,25.30
2023-03-19T13:27:37.538Z,24.10
2023-03-19T13:30:42.556Z,23.50
2023-03-19T13:33:55.880Z,23.20
2023-03-19T13:37:07.806Z,23.00
2023-03-19T13:40:40.992Z,22.50
2023-03-19T13:43:54.323Z,21.50
2023-03-19T13:46:57.713Z,21.40
2023-03-19T13:50:26.750Z,20.80
2023-03-19T13:53:43.831Z,20.80
2023-03-19T13:57:36.311Z,20.70
2023-03-19T14:00:59.498Z,20.80
2023-03-19T14:04:05.193Z,20.90
2023-03-19T14:07:17.215Z,20.80
2023-03-19T14:10:26.507Z,20.80
2023-03-19T14:13:36.335Z,20.50
2023-03-19T14:16:44.837Z,20.40
2023-03-19T14:19:48.299Z,20.00
2023-03-19T14:23:13.043Z,19.90
2023-03-19T14:26:20.610Z,19.70
2023-03-19T14:29:26.628Z,19.50
2023-03-19T14:32:35.996Z,19.50
2023-03-19T14:35:45.373Z,19.30
2023-03-19T14:38:52.152Z,19.40
2023-03-19T14:42:04.552Z,19.50
2023-03-19T14:45:45.024Z,19.50
2023-03-19T14:49:22.031Z,19.50
2023-03-19T14:52:29.618Z,19.00
2023-03-19T14:55:37.465Z,18.90
2023-03-19T14:58:51.397Z,18.80
2023-03-19T15:01:55.752Z,18.40
2023-03-19T15:05:00.801Z,18.30
2023-03-19T15:08:06.357Z,18.30
2023-03-19T15:11:31.514Z,18.30
2023-03-19T15:15:03.286Z,18.30
2023-03-19T15:18:11.519Z,18.40
2023-03-19T15:21:14.967Z,18.10
2023-03-19T15:24:19.216Z,17.90
2023-03-19T15:27:24.494Z,17.90
2023-03-19T15:30:30.952Z,17.90
2023-03-19T15:33:41.255Z,17.90
2023-03-19T15:36:48.286Z,17.70
2023-03-19T15:39:56.566Z,17.60
2023-03-19T15:43:04.173Z,17.60
2023-03-19T15:46:13.137Z,17.60
2023-03-19T15:49:21.018Z,17.60
2023-03-19T15:52:26.766Z,17.50
2023-03-19T15:55:35.017Z,17.50
2023-03-19T15:58:44.785Z,17.50
2023-03-19T16:01:51.546Z,17.40
2023-03-19T16:05:18.706Z,17.40
2023-03-19T16:08:23.886Z,17.40
2023-03-19T16:11:31.388Z,17.40
2023-03-19T16:14:43.864Z,17.40
2023-03-19T16:17:53.015Z,17.30
2023-03-19T16:21:16.608Z,17.20
2023-03-19T16:24:27.904Z,17.20
2023-03-19T16:27:38.331Z,17.10
2023-03-19T16:30:51.933Z,17.00
2023-03-19T16:33:58.767Z,17.00
2023-03-19T16:37:04.795Z,16.90
2023-03-19T16:40:43.669Z,16.80
2023-03-19T16:43:49.208Z,16.90
2023-03-19T16:46:53.298Z,16.80
2023-03-19T16:50:02.593Z,16.70
2023-03-19T16:53:13.976Z,16.60
2023-03-19T16:56:20.524Z,16.60
2023-03-19T16:59:33.266Z,16.50
2023-03-19T17:02:38.277Z,16.50
2023-03-19T17:05:47.172Z,16.40
2023-03-19T17:08:52.227Z,16.40
2023-03-19T17:11:57.932Z,16.30
2023-03-19T17:15:02.632Z,16.30
2023-03-19T17:18:17.305Z,16.30
2023-03-19T17:21:26.659Z,16.20
2023-03-19T17:24:33.093Z,16.20
2023-03-19T17:27:38.836Z,16.10
2023-03-19T17:30:43.078Z,16.10
2023-03-19T17:33:48.402Z,16.10
2023-03-19T17:37:01.456Z,16.10
2023-03-19T17:40:17.133Z,16.00
2023-03-19T17:43:30.885Z,15.90
2023-03-19T17:46:39.964Z,15.90
2023-03-19T17:49:46.973Z,15.90
2023-03-19T17:52:54.268Z,15.80
2023-03-19T17:56:00.343Z,15.80
2023-03-19T17:59:07.198Z,15.70
2023-03-19T18:02:27.276Z,15.70
2023-03-19T18:05:32.633Z,15.70
2023-03-19T18:08:41.081Z,15.70
2023-03-19T18:11:47.716Z,15.60
2023-03-19T18:14:53.633Z,15.60
2023-03-19T18:18:02.056Z,15.60
2023-03-19T18:21:06.563Z,15.50
2023-03-19T18:24:14.694Z,15.50
2023-03-19T18:27:22.910Z,15.40
2023-03-19T18:30:28.879Z,15.40
2023-03-19T18:33:35.069Z,15.30
2023-03-19T18:36:43.487Z,15.30
2023-03-19T18:39:50.494Z,15.20
2023-03-19T18:42:58.224Z,15.20
2023-03-19T18:46:02.962Z,15.10
2023-03-19T18:49:19.902Z,15.10
2023-03-19T18:52:24.656Z,15.00
2023-03-19T18:55:34.716Z,15.00
2023-03-19T18:58:41.970Z,15.00
2023-03-19T19:01:52.866Z,15.00
2023-03-19T19:04:57.845Z,14.90
2023-03-19T19:08:04.263Z,14.80
2023-03-19T19:11:11.023Z,14.70
2023-03-19T19:14:20.546Z,14.70
2023-03-19T19:17:29.845Z,14.60
2023-03-19T19:20:35.287Z,14.60
2023-03-19T19:23:44.556Z,14.50
2023-03-19T19:26:54.599Z,14.50
2023-03-19T19:30:02.590Z,14.40
2023-03-19T19:33:13.277Z,14.30
2023-03-19T19:36:18.672Z,14.30
2023-03-19T19:39:23.988Z,14.20
2023-03-19T19:42:31.028Z,14.20
2023-03-19T19:45:39.345Z,14.10
2023-03-19T19:48:45.824Z,14.10
2023-03-19T19:51:51.642Z,14.00
2023-03-19T19:54:57.435Z,13.90
2023-03-19T19:58:07.446Z,13.80
2023-03-19T20:01:19.965Z,13.80
2023-03-19T20:04:29.238Z,13.80
2023-03-19T20:07:35.388Z,13.70
2023-03-19T20:10:43.086Z,13.70
2023-03-19T20:13:51.725Z,13.70
2023-03-19T20:16:58.911Z,13.60
2023-03-19T20:20:05.078Z,13.50
2023-03-19T20:23:10.949Z,13.50
2023-03-19T20:26:17.616Z,13.50
2023-03-19T20:29:23.975Z,13.40
2023-03-19T20:32:34.981Z,13.30
2023-03-19T20:35:40.628Z,13.30
2023-03-19T20:38:46.118Z,13.20
2023-03-19T20:41:52.224Z,13.10
2023-03-19T20:45:01.973Z,13.00
2023-03-19T20:48:13.676Z,13.00
2023-03-19T20:51:22.068Z,12.90
2023-03-19T20:54:28.490Z,12.90
2023-03-19T20:57:33.809Z,12.80
2023-03-19T21:00:40.162Z,12.70
2023-03-19T21:03:44.062Z,12.60
2023-03-19T21:06:53.532Z,12.60
2023-03-19T21:10:02.637Z,12.50
2023-03-19T21:13:11.457Z,12.40
2023-03-19T21:16:24.467Z,12.30
2023-03-19T21:19:29.187Z,12.30
2023-03-19T21:22:37.612Z,12.20
2023-03-19T21:25:42.983Z,12.20
2023-03-19T21:28:49.116Z,12.10
2023-03-19T21:31:55.751Z,12.00
2023-03-19T21:35:03.986Z,12.00
2023-03-19T21:38:07.654Z,11.90
2023-03-19T21:41:20.351Z,11.80
2023-03-19T21:44:24.587Z,11.80
2023-03-19T21:47:29.304Z,11.70
2023-03-19T21:50:33.257Z,11.60
2023-03-19T21:53:36.454Z,11.60
2023-03-19T21:56:42.647Z,11.60
2023-03-19T21:59:47.149Z,11.50
2023-03-19T22:02:52.438Z,11.50
2023-03-19T22:05:56.913Z,11.40
2023-03-19T22:09:00.276Z,11.40
2023-03-19T22:12:03.515Z,11.30
2023-03-19T22:15:08.288Z,11.30
2023-03-19T22:18:15.811Z,11.20
2023-03-19T22:21:21.234Z,11.10
2023-03-19T22:24:24.442Z,11.10
2023-03-19T22:27:27.578Z,11.10
2023-03-19T22:30:37.049Z,11.10
2023-03-19T22:33:41.619Z,11.00
2023-03-19T22:36:44.844Z,10.90
2023-03-19T22:39:47.999Z,10.90
2023-03-19T22:42:51.145Z,10.80
2023-03-19T22:45:56.555Z,10.70
2023-03-19T22:49:01.677Z,10.70
2023-03-19T22:52:05.049Z,10.70
2023-03-19T22:55:09.151Z,10.70
2023-03-19T22:58:12.298Z,10.60
2023-03-19T23:01:35.842Z,10.60
2023-03-19T23:04:40.697Z,10.60
2023-03-19T23:07:43.863Z,10.50
2023-03-19T23:10:48.420Z,10.50
2023-03-19T23:13:51.695Z,10.60
2023-03-19T23:16:55.837Z,10.40
2023-03-19T23:20:00.700Z,10.40
2023-03-19T23:23:03.865Z,10.40
2023-03-19T23:26:07.531Z,10.30
2023-03-19T23:29:18.831Z,10.40
2023-03-19T23:32:22.026Z,10.30
2023-03-19T23:35:29.626Z,10.30
2023-03-19T23:38:32.887Z,10.30
2023-03-19T23:41:38.058Z,10.20
2023-03-19T23:44:42.211Z,10.20
2023-03-19T23:47:45.539Z,10.10
2023-03-19T23:50:50.651Z,10.10
2023-03-19T23:53:53.810Z,10.00
2023-03-19T23:56:59.753Z,10.00
